sensor_id;sensor_type;location;lat;lon;timestamp;P1;durP1;ratioP1;P2;durP2;ratioP2
39256;SDS011;67272;48.066;11.038;2023-10-19T00:00:14;12.87;;;11.57;;
39256;SDS011;67272;48.066;11.038;2023-10-19T00:02:49;12.77;;;11.47;;
39256;SDS011;67272;48.066;11.038;2023-10-19T00:05:22;12.73;;;11.33;;
39256;SDS011;67272;48.066;11.038;2023-10-19T00:07:51;13.17;;;11.63;;
39256;SDS011;67272;48.066;11.038;2023-10-19T00:10:25;12.60;;;11.30;;
39256;SDS011;67272;48.066;11.038;2023-10-19T00:12:54;14.00;;;12.47;;
39256;SDS011;67272;48.066;11.038;2023-10-19T00:15:46;13.43;;;11.23;;
39256;SDS011;67272;48.066;11.038;2023-10-19T00:18:17;13.83;;;12.43;;
39256;SDS011;67272;48.066;11.038;2023-10-19T00:20:44;13.80;;;12.27;;
39256;SDS011;67272;48.066;11.038;2023-10-19T00:23:11;13.30;;;11.87;;
39256;SDS011;67272;48.066;11.038;2023-10-19T00:25:39;12.90;;;11.60;;
39256;SDS011;67272;48.066;11.038;2023-10-19T00:28:16;12.70;;;11.47;;
39256;SDS011;67272;48.066;11.038;2023-10-19T00:30:49;11.80;;;10.57;;
39256;SDS011;67272;48.066;11.038;2023-10-19T00:33:18;12.37;;;10.43;;
39256;SDS011;67272;48.066;11.038;2023-10-19T00:35:54;12.20;;;11.03;;
39256;SDS011;67272;48.066;11.038;2023-10-19T00:38:33;13.83;;;11.17;;
39256;SDS011;67272;48.066;11.038;2023-10-19T00:41:03;11.93;;;10.83;;
39256;SDS011;67272;48.066;11.038;2023-10-19T00:43:39;12.00;;;10.80;;
39256;SDS011;67272;48.066;11.038;2023-10-19T00:46:15;12.23;;;10.93;;
39256;SDS011;67272;48.066;11.038;2023-10-19T00:48:47;12.30;;;11.07;;
39256;SDS011;67272;48.066;11.038;2023-10-19T00:51:16;11.30;;;10.20;;
39256;SDS011;67272;48.066;11.038;2023-10-19T00:56:34;11.90;;;10.70;;
39256;SDS011;67272;48.066;11.038;2023-10-19T00:59:03;11.50;;;9.97;;
39256;SDS011;67272;48.066;11.038;2023-10-19T01:01:42;10.73;;;9.63;;
39256;SDS011;67272;48.066;11.038;2023-10-19T01:04:12;11.50;;;10.30;;
39256;SDS011;67272;48.066;11.038;2023-10-19T01:07:00;10.33;;;9.43;;
39256;SDS011;67272;48.066;11.038;2023-10-19T01:09:40;10.47;;;9.50;;
39256;SDS011;67272;48.066;11.038;2023-10-19T01:12:15;10.73;;;9.73;;
39256;SDS011;67272;48.066;11.038;2023-10-19T01:17:52;9.70;;;8.80;;
39256;SDS011;67272;48.066;11.038;2023-10-19T01:20:22;9.90;;;9.00;;
39256;SDS011;67272;48.066;11.038;2023-10-19T01:25:49;9.90;;;8.90;;
39256;SDS011;67272;48.066;11.038;2023-10-19T01:28:32;10.63;;;9.63;;
39256;SDS011;67272;48.066;11.038;2023-10-19T01:31:13;10.83;;;9.73;;
39256;SDS011;67272;48.066;11.038;2023-10-19T01:33:53;11.10;;;9.90;;
39256;SDS011;67272;48.066;11.038;2023-10-19T01:36:30;10.67;;;9.67;;
39256;SDS011;67272;48.066;11.038;2023-10-19T01:39:02;10.20;;;9.30;;
39256;SDS011;67272;48.066;11.038;2023-10-19T01:41:35;9.87;;;8.97;;
39256;SDS011;67272;48.066;11.038;2023-10-19T01:44:02;11.03;;;9.90;;
39256;SDS011;67272;48.066;11.038;2023-10-19T01:46:32;10.60;;;9.60;;
39256;SDS011;67272;48.066;11.038;2023-10-19T01:49:06;9.93;;;8.93;;
39256;SDS011;67272;48.066;11.038;2023-10-19T01:51:35;9.80;;;8.90;;
39256;SDS011;67272;48.066;11.038;2023-10-19T01:54:05;9.80;;;8.87;;
39256;SDS011;67272;48.066;11.038;2023-10-19T01:56:35;10.17;;;9.27;;
39256;SDS011;67272;48.066;11.038;2023-10-19T01:59:04;9.97;;;8.97;;
39256;SDS011;67272;48.066;11.038;2023-10-19T02:01:34;10.00;;;9.00;;
39256;SDS011;67272;48.066;11.038;2023-10-19T02:04:09;9.73;;;8.80;;
39256;SDS011;67272;48.066;11.038;2023-10-19T02:06:42;10.33;;;9.43;;
39256;SDS011;67272;48.066;11.038;2023-10-19T02:09:18;9.63;;;8.73;;
39256;SDS011;67272;48.066;11.038;2023-10-19T02:11:59;10.20;;;9.17;;
39256;SDS011;67272;48.066;11.038;2023-10-19T02:14:27;10.60;;;9.20;;
39256;SDS011;67272;48.066;11.038;2023-10-19T02:17:00;10.47;;;9.47;;
39256;SDS011;67272;48.066;11.038;2023-10-19T02:19:29;10.33;;;9.37;;
39256;SDS011;67272;48.066;11.038;2023-10-19T02:21:59;11.60;;;9.77;;
39256;SDS011;67272;48.066;11.038;2023-10-19T02:24:38;10.17;;;9.27;;
39256;SDS011;67272;48.066;11.038;2023-10-19T02:27:07;10.77;;;9.70;;
39256;SDS011;67272;48.066;11.038;2023-10-19T02:29:34;10.53;;;9.53;;
39256;SDS011;67272;48.066;11.038;2023-10-19T02:32:04;10.00;;;9.00;;
39256;SDS011;67272;48.066;11.038;2023-10-19T02:34:31;10.53;;;9.40;;
39256;SDS011;67272;48.066;11.038;2023-10-19T02:36:58;10.53;;;9.63;;
39256;SDS011;67272;48.066;11.038;2023-10-19T02:39:24;10.40;;;9.40;;
39256;SDS011;67272;48.066;11.038;2023-10-19T02:41:53;9.77;;;8.90;;
39256;SDS011;67272;48.066;11.038;2023-10-19T02:44:26;10.50;;;9.50;;
39256;SDS011;67272;48.066;11.038;2023-10-19T02:46:55;14.23;;;12.93;;
39256;SDS011;67272;48.066;11.038;2023-10-19T02:49:34;11.60;;;10.50;;
39256;SDS011;67272;48.066;11.038;2023-10-19T02:52:08;10.63;;;9.63;;
39256;SDS011;67272;48.066;11.038;2023-10-19T02:54:41;10.23;;;9.33;;
39256;SDS011;67272;48.066;11.038;2023-10-19T02:57:20;10.23;;;9.27;;
39256;SDS011;67272;48.066;11.038;2023-10-19T02:59:49;9.67;;;8.77;;
39256;SDS011;67272;48.066;11.038;2023-10-19T03:02:16;9.00;;;8.20;;
39256;SDS011;67272;48.066;11.038;2023-10-19T03:04:43;9.63;;;8.83;;
39256;SDS011;67272;48.066;11.038;2023-10-19T03:07:10;9.33;;;8.43;;
39256;SDS011;67272;48.066;11.038;2023-10-19T03:09:43;9.47;;;8.57;;
39256;SDS011;67272;48.066;11.038;2023-10-19T03:12:22;9.80;;;8.90;;
39256;SDS011;67272;48.066;11.038;2023-10-19T03:14:51;9.63;;;8.63;;
39256;SDS011;67272;48.066;11.038;2023-10-19T03:17:18;9.50;;;8.50;;
39256;SDS011;67272;48.066;11.038;2023-10-19T03:19:44;9.50;;;8.50;;
39256;SDS011;67272;48.066;11.038;2023-10-19T03:22:17;9.67;;;8.73;;
39256;SDS011;67272;48.066;11.038;2023-10-19T03:24:44;9.63;;;8.70;;
39256;SDS011;67272;48.066;11.038;2023-10-19T03:27:11;13.02;;;11.85;;
39256;SDS011;67272;48.066;11.038;2023-10-19T03:29:41;11.57;;;10.47;;
39256;SDS011;67272;48.066;11.038;2023-10-19T03:32:12;12.23;;;11.03;;
39256;SDS011;67272;48.066;11.038;2023-10-19T03:34:38;10.97;;;10.03;;
39256;SDS011;67272;48.066;11.038;2023-10-19T03:37:14;11.30;;;10.20;;
39256;SDS011;67272;48.066;11.038;2023-10-19T03:39:42;11.53;;;10.33;;
39256;SDS011;67272;48.066;11.038;2023-10-19T03:42:14;11.43;;;10.40;;
39256;SDS011;67272;48.066;11.038;2023-10-19T03:44:40;11.03;;;9.90;;
39256;SDS011;67272;48.066;11.038;2023-10-19T03:47:18;10.67;;;9.67;;
39256;SDS011;67272;48.066;11.038;2023-10-19T03:49:46;10.70;;;9.73;;
39256;SDS011;67272;48.066;11.038;2023-10-19T03:52:16;10.90;;;9.80;;
39256;SDS011;67272;48.066;11.038;2023-10-19T03:54:47;11.40;;;10.30;;
39256;SDS011;67272;48.066;11.038;2023-10-19T03:57:14;10.70;;;9.70;;
39256;SDS011;67272;48.066;11.038;2023-10-19T03:59:45;10.53;;;9.43;;
39256;SDS011;67272;48.066;11.038;2023-10-19T04:02:12;9.97;;;9.07;;
39256;SDS011;67272;48.066;11.038;2023-10-19T04:04:42;10.13;;;9.20;;
39256;SDS011;67272;48.066;11.038;2023-10-19T04:07:09;10.60;;;9.60;;
39256;SDS011;67272;48.066;11.038;2023-10-19T04:09:53;10.00;;;9.07;;
39256;SDS011;67272;48.066;11.038;2023-10-19T04:12:38;9.57;;;8.67;;
39256;SDS011;67272;48.066;11.038;2023-10-19T04:15:09;9.97;;;9.07;;
39256;SDS011;67272;48.066;11.038;2023-10-19T04:17:44;10.30;;;9.40;;
39256;SDS011;67272;48.066;11.038;2023-10-19T04:20:11;10.00;;;9.00;;
39256;SDS011;67272;48.066;11.038;2023-10-19T04:22:44;9.93;;;9.03;;
39256;SDS011;67272;48.066;11.038;2023-10-19T04:25:11;10.03;;;9.13;;
39256;SDS011;67272;48.066;11.038;2023-10-19T04:27:41;10.30;;;9.33;;
39256;SDS011;67272;48.066;11.038;2023-10-19T04:30:08;10.40;;;9.40;;
39256;SDS011;67272;48.066;11.038;2023-10-19T04:32:44;10.33;;;9.33;;
39256;SDS011;67272;48.066;11.038;2023-10-19T04:35:11;10.23;;;9.23;;
39256;SDS011;67272;48.066;11.038;2023-10-19T04:37:52;10.50;;;9.43;;
39256;SDS011;67272;48.066;11.038;2023-10-19T04:40:19;8.80;;;8.10;;
39256;SDS011;67272;48.066;11.038;2023-10-19T04:42:46;9.17;;;8.37;;
39256;SDS011;67272;48.066;11.038;2023-10-19T04:45:13;8.87;;;8.07;;
39256;SDS011;67272;48.066;11.038;2023-10-19T04:47:41;8.57;;;7.67;;
39256;SDS011;67272;48.066;11.038;2023-10-19T04:50:10;7.87;;;7.23;;
39256;SDS011;67272;48.066;11.038;2023-10-19T04:52:36;8.53;;;7.73;;
39256;SDS011;67272;48.066;11.038;2023-10-19T04:55:03;8.87;;;7.97;;
39256;SDS011;67272;48.066;11.038;2023-10-19T04:57:29;8.77;;;7.93;;
39256;SDS011;67272;48.066;11.038;2023-10-19T04:59:59;8.80;;;8.00;;
39256;SDS011;67272;48.066;11.038;2023-10-19T05:02:28;9.13;;;8.30;;
39256;SDS011;67272;48.066;11.038;2023-10-19T05:04:54;8.50;;;7.77;;
39256;SDS011;67272;48.066;11.038;2023-10-19T05:07:21;8.93;;;8.13;;
39256;SDS011;67272;48.066;11.038;2023-10-19T05:09:47;9.47;;;8.63;;
39256;SDS011;67272;48.066;11.038;2023-10-19T05:12:14;9.60;;;8.70;;
39256;SDS011;67272;48.066;11.038;2023-10-19T05:14:41;9.23;;;8.40;;
39256;SDS011;67272;48.066;11.038;2023-10-19T05:17:08;8.90;;;8.10;;
39256;SDS011;67272;48.066;11.038;2023-10-19T05:19:38;7.93;;;7.23;;
39256;SDS011;67272;48.066;11.038;2023-10-19T05:22:09;8.60;;;7.90;;
39256;SDS011;67272;48.066;11.038;2023-10-19T05:24:41;8.60;;;7.80;;
39256;SDS011;67272;48.066;11.038;2023-10-19T05:27:07;8.93;;;8.13;;
39256;SDS011;67272;48.066;11.038;2023-10-19T05:29:35;9.27;;;8.30;;
39256;SDS011;67272;48.066;11.038;2023-10-19T05:32:01;8.93;;;8.13;;
39256;SDS011;67272;48.066;11.038;2023-10-19T05:34:28;9.30;;;8.50;;
39256;SDS011;67272;48.066;11.038;2023-10-19T05:36:59;8.93;;;8.13;;
39256;SDS011;67272;48.066;11.038;2023-10-19T05:39:28;9.20;;;8.40;;
39256;SDS011;67272;48.066;11.038;2023-10-19T05:41:56;9.03;;;8.20;;
39256;SDS011;67272;48.066;11.038;2023-10-19T05:44:26;9.87;;;8.90;;
39256;SDS011;67272;48.066;11.038;2023-10-19T05:46:52;9.73;;;8.77;;
39256;SDS011;67272;48.066;11.038;2023-10-19T05:49:22;8.23;;;7.53;;
39256;SDS011;67272;48.066;11.038;2023-10-19T05:51:49;8.43;;;7.70;;
39256;SDS011;67272;48.066;11.038;2023-10-19T05:54:15;8.00;;;7.30;;
39256;SDS011;67272;48.066;11.038;2023-10-19T05:56:44;7.82;;;7.13;;
39256;SDS011;67272;48.066;11.038;2023-10-19T05:59:14;7.90;;;7.20;;
39256;SDS011;67272;48.066;11.038;2023-10-19T06:01:41;7.97;;;7.18;;
39256;SDS011;67272;48.066;11.038;2023-10-19T06:04:07;7.73;;;7.03;;
39256;SDS011;67272;48.066;11.038;2023-10-19T06:06:34;9.60;;;8.80;;
39256;SDS011;67272;48.066;11.038;2023-10-19T06:09:01;10.87;;;9.77;;
39256;SDS011;67272;48.066;11.038;2023-10-19T06:11:30;10.70;;;9.70;;
39256;SDS011;67272;48.066;11.038;2023-10-19T06:14:02;10.93;;;9.82;;
39256;SDS011;67272;48.066;11.038;2023-10-19T06:16:28;11.67;;;10.57;;
39256;SDS011;67272;48.066;11.038;2023-10-19T06:18:55;15.45;;;13.95;;
39256;SDS011;67272;48.066;11.038;2023-10-19T06:21:21;23.63;;;21.13;;
39256;SDS011;67272;48.066;11.038;2023-10-19T06:23:49;22.35;;;20.05;;
39256;SDS011;67272;48.066;11.038;2023-10-19T06:26:15;18.65;;;16.80;;
39256;SDS011;67272;48.066;11.038;2023-10-19T06:28:48;16.93;;;13.47;;
39256;SDS011;67272;48.066;11.038;2023-10-19T06:31:16;16.75;;;14.95;;
39256;SDS011;67272;48.066;11.038;2023-10-19T06:33:42;16.98;;;15.18;;
39256;SDS011;67272;48.066;11.038;2023-10-19T06:36:09;17.15;;;15.38;;
39256;SDS011;67272;48.066;11.038;2023-10-19T06:38:35;18.85;;;17.05;;
39256;SDS011;67272;48.066;11.038;2023-10-19T06:41:09;18.65;;;16.95;;
39256;SDS011;67272;48.066;11.038;2023-10-19T06:43:36;17.65;;;16.00;;
39256;SDS011;67272;48.066;11.038;2023-10-19T06:46:03;17.52;;;15.88;;
39256;SDS011;67272;48.066;11.038;2023-10-19T06:48:29;17.13;;;15.43;;
39256;SDS011;67272;48.066;11.038;2023-10-19T06:50:56;9.65;;;8.65;;
39256;SDS011;67272;48.066;11.038;2023-10-19T06:53:22;7.10;;;6.50;;
39256;SDS011;67272;48.066;11.038;2023-10-19T06:55:49;6.93;;;6.32;;
39256;SDS011;67272;48.066;11.038;2023-10-19T06:58:15;9.23;;;8.52;;
39256;SDS011;67272;48.066;11.038;2023-10-19T07:00:44;7.55;;;6.85;;
39256;SDS011;67272;48.066;11.038;2023-10-19T07:03:21;7.20;;;6.57;;
39256;SDS011;67272;48.066;11.038;2023-10-19T07:05:48;7.43;;;6.82;;
39256;SDS011;67272;48.066;11.038;2023-10-19T07:08:15;6.53;;;6.03;;
39256;SDS011;67272;48.066;11.038;2023-10-19T07:10:41;6.45;;;5.95;;
39256;SDS011;67272;48.066;11.038;2023-10-19T07:13:08;6.90;;;6.30;;
39256;SDS011;67272;48.066;11.038;2023-10-19T07:15:34;6.55;;;6.00;;
39256;SDS011;67272;48.066;11.038;2023-10-19T07:18:00;6.60;;;6.05;;
39256;SDS011;67272;48.066;11.038;2023-10-19T07:20:26;6.35;;;5.85;;
39256;SDS011;67272;48.066;11.038;2023-10-19T07:22:53;5.68;;;5.25;;
39256;SDS011;67272;48.066;11.038;2023-10-19T07:25:20;5.78;;;5.18;;
39256;SDS011;67272;48.066;11.038;2023-10-19T07:27:47;6.22;;;5.72;;
39256;SDS011;67272;48.066;11.038;2023-10-19T07:30:14;6.07;;;5.63;;
39256;SDS011;67272;48.066;11.038;2023-10-19T07:32:46;7.00;;;6.50;;
39256;SDS011;67272;48.066;11.038;2023-10-19T07:35:14;13.68;;;12.27;;
39256;SDS011;67272;48.066;11.038;2023-10-19T07:37:40;30.73;;;27.20;;
39256;SDS011;67272;48.066;11.038;2023-10-19T07:40:08;18.10;;;16.50;;
39256;SDS011;67272;48.066;11.038;2023-10-19T07:42:39;11.80;;;10.80;;
39256;SDS011;67272;48.066;11.038;2023-10-19T07:45:07;7.63;;;6.97;;
39256;SDS011;67272;48.066;11.038;2023-10-19T07:47:37;7.25;;;6.65;;
39256;SDS011;67272;48.066;11.038;2023-10-19T07:50:06;6.93;;;6.35;;
39256;SDS011;67272;48.066;11.038;2023-10-19T07:52:38;8.07;;;7.38;;
39256;SDS011;67272;48.066;11.038;2023-10-19T07:55:05;8.75;;;8.00;;
39256;SDS011;67272;48.066;11.038;2023-10-19T07:57:32;7.93;;;7.22;;
39256;SDS011;67272;48.066;11.038;2023-10-19T07:59:59;8.00;;;7.25;;
39256;SDS011;67272;48.066;11.038;2023-10-19T08:02:25;7.40;;;6.80;;
39256;SDS011;67272;48.066;11.038;2023-10-19T08:04:52;8.65;;;7.95;;
39256;SDS011;67272;48.066;11.038;2023-10-19T08:07:18;8.27;;;7.57;;
39256;SDS011;67272;48.066;11.038;2023-10-19T08:09:44;14.73;;;13.32;;
39256;SDS011;67272;48.066;11.038;2023-10-19T08:12:11;14.07;;;12.77;;
39256;SDS011;67272;48.066;11.038;2023-10-19T08:14:39;10.98;;;9.88;;
39256;SDS011;67272;48.066;11.038;2023-10-19T08:17:05;9.25;;;8.45;;
39256;SDS011;67272;48.066;11.038;2023-10-19T08:19:34;8.52;;;7.72;;
39256;SDS011;67272;48.066;11.038;2023-10-19T08:22:01;8.68;;;7.90;;
39256;SDS011;67272;48.066;11.038;2023-10-19T08:24:27;13.30;;;11.63;;
39256;SDS011;67272;48.066;11.038;2023-10-19T08:27:03;12.15;;;10.95;;
39256;SDS011;67272;48.066;11.038;2023-10-19T08:29:31;12.15;;;10.45;;
39256;SDS011;67272;48.066;11.038;2023-10-19T08:31:57;11.50;;;10.50;;
39256;SDS011;67272;48.066;11.038;2023-10-19T08:34:27;11.52;;;10.43;;
39256;SDS011;67272;48.066;11.038;2023-10-19T08:36:55;12.25;;;11.13;;
39256;SDS011;67272;48.066;11.038;2023-10-19T08:39:21;12.05;;;10.75;;
39256;SDS011;67272;48.066;11.038;2023-10-19T08:41:52;13.93;;;11.00;;
39256;SDS011;67272;48.066;11.038;2023-10-19T08:44:20;15.07;;;11.85;;
39256;SDS011;67272;48.066;11.038;2023-10-19T08:46:47;11.85;;;10.77;;
39256;SDS011;67272;48.066;11.038;2023-10-19T08:49:22;12.23;;;10.68;;
39256;SDS011;67272;48.066;11.038;2023-10-19T08:51:55;11.93;;;10.82;;
39256;SDS011;67272;48.066;11.038;2023-10-19T08:54:22;10.77;;;9.80;;
39256;SDS011;67272;48.066;11.038;2023-10-19T08:56:48;9.38;;;8.52;;
39256;SDS011;67272;48.066;11.038;2023-10-19T08:59:15;10.07;;;9.18;;
39256;SDS011;67272;48.066;11.038;2023-10-19T09:01:42;16.95;;;15.23;;
39256;SDS011;67272;48.066;11.038;2023-10-19T09:04:14;46.85;;;35.05;;
39256;SDS011;67272;48.066;11.038;2023-10-19T09:06:47;28.00;;;22.92;;
39256;SDS011;67272;48.066;11.038;2023-10-19T09:09:14;23.63;;;20.85;;
39256;SDS011;67272;48.066;11.038;2023-10-19T09:11:50;20.02;;;17.52;;
39256;SDS011;67272;48.066;11.038;2023-10-19T09:14:53;18.65;;;16.63;;
39256;SDS011;67272;48.066;11.038;2023-10-19T09:17:12;18.13;;;14.25;;
39256;SDS011;67272;48.066;11.038;2023-10-19T09:19:40;12.50;;;11.40;;
39256;SDS011;67272;48.066;11.038;2023-10-19T09:22:07;10.88;;;9.93;;
39256;SDS011;67272;48.066;11.038;2023-10-19T09:24:42;8.80;;;7.97;;
39256;SDS011;67272;48.066;11.038;2023-10-19T09:27:09;8.43;;;7.53;;
39256;SDS011;67272;48.066;11.038;2023-10-19T09:29:36;6.55;;;5.95;;
39256;SDS011;67272;48.066;11.038;2023-10-19T09:32:02;6.43;;;5.82;;
39256;SDS011;67272;48.066;11.038;2023-10-19T09:34:30;5.50;;;5.00;;
39256;SDS011;67272;48.066;11.038;2023-10-19T09:37:00;5.35;;;4.85;;
39256;SDS011;67272;48.066;11.038;2023-10-19T09:39:30;5.32;;;4.82;;
39256;SDS011;67272;48.066;11.038;2023-10-19T09:42:00;5.40;;;4.90;;
39256;SDS011;67272;48.066;11.038;2023-10-19T09:44:32;5.20;;;4.45;;
39256;SDS011;67272;48.066;11.038;2023-10-19T09:46:59;5.05;;;4.65;;
39256;SDS011;67272;48.066;11.038;2023-10-19T09:49:29;5.82;;;4.47;;
39256;SDS011;67272;48.066;11.038;2023-10-19T09:51:55;19.20;;;13.85;;
39256;SDS011;67272;48.066;11.038;2023-10-19T09:54:32;11.43;;;9.20;;
39256;SDS011;67272;48.066;11.038;2023-10-19T09:57:02;7.60;;;6.90;;
39256;SDS011;67272;48.066;11.038;2023-10-19T09:59:33;6.95;;;6.10;;
39256;SDS011;67272;48.066;11.038;2023-10-19T10:02:09;7.65;;;6.70;;
39256;SDS011;67272;48.066;11.038;2023-10-19T10:04:38;6.40;;;5.93;;
39256;SDS011;67272;48.066;11.038;2023-10-19T10:07:09;7.00;;;6.30;;
39256;SDS011;67272;48.066;11.038;2023-10-19T10:09:36;6.60;;;6.00;;
39256;SDS011;67272;48.066;11.038;2023-10-19T10:12:22;6.97;;;5.90;;
39256;SDS011;67272;48.066;11.038;2023-10-19T10:14:53;7.40;;;6.80;;
39256;SDS011;67272;48.066;11.038;2023-10-19T10:17:21;6.45;;;5.93;;
39256;SDS011;67272;48.066;11.038;2023-10-19T10:19:48;6.60;;;6.10;;
39256;SDS011;67272;48.066;11.038;2023-10-19T10:22:14;7.00;;;6.40;;
39256;SDS011;67272;48.066;11.038;2023-10-19T10:24:41;6.50;;;5.93;;
39256;SDS011;67272;48.066;11.038;2023-10-19T10:27:17;6.35;;;5.85;;
39256;SDS011;67272;48.066;11.038;2023-10-19T10:29:54;6.45;;;5.95;;
39256;SDS011;67272;48.066;11.038;2023-10-19T10:35:06;6.40;;;5.80;;
39256;SDS011;67272;48.066;11.038;2023-10-19T10:37:33;6.25;;;5.72;;
39256;SDS011;67272;48.066;11.038;2023-10-19T10:40:02;7.72;;;5.93;;
39256;SDS011;67272;48.066;11.038;2023-10-19T10:42:31;6.57;;;6.07;;
39256;SDS011;67272;48.066;11.038;2023-10-19T10:44:59;7.00;;;6.40;;
39256;SDS011;67272;48.066;11.038;2023-10-19T10:47:28;7.43;;;6.85;;
39256;SDS011;67272;48.066;11.038;2023-10-19T10:49:59;7.63;;;6.95;;
39256;SDS011;67272;48.066;11.038;2023-10-19T10:52:30;7.63;;;7.00;;
39256;SDS011;67272;48.066;11.038;2023-10-19T10:55:10;8.38;;;7.68;;
39256;SDS011;67272;48.066;11.038;2023-10-19T10:57:37;9.13;;;8.45;;
39256;SDS011;67272;48.066;11.038;2023-10-19T11:02:30;12.70;;;11.50;;
39256;SDS011;67272;48.066;11.038;2023-10-19T11:04:56;10.10;;;9.10;;
39256;SDS011;67272;48.066;11.038;2023-10-19T11:07:23;7.80;;;7.00;;
39256;SDS011;67272;48.066;11.038;2023-10-19T11:09:50;6.47;;;5.75;;
39256;SDS011;67272;48.066;11.038;2023-10-19T11:12:17;5.60;;;5.10;;
39256;SDS011;67272;48.066;11.038;2023-10-19T11:14:57;5.72;;;5.22;;
39256;SDS011;67272;48.066;11.038;2023-10-19T11:17:41;6.97;;;5.45;;
39256;SDS011;67272;48.066;11.038;2023-10-19T11:20:07;5.28;;;4.80;;
39256;SDS011;67272;48.066;11.038;2023-10-19T11:22:47;4.47;;;4.07;;
39256;SDS011;67272;48.066;11.038;2023-10-19T11:25:18;5.22;;;4.68;;
39256;SDS011;67272;48.066;11.038;2023-10-19T11:27:45;5.10;;;4.60;;
39256;SDS011;67272;48.066;11.038;2023-10-19T11:30:12;5.53;;;4.53;;
39256;SDS011;67272;48.066;11.038;2023-10-19T11:32:38;4.93;;;4.53;;
39256;SDS011;67272;48.066;11.038;2023-10-19T11:35:05;5.07;;;4.57;;
39256;SDS011;67272;48.066;11.038;2023-10-19T11:37:51;4.53;;;4.13;;
39256;SDS011;67272;48.066;11.038;2023-10-19T11:40:21;3.92;;;3.63;;
39256;SDS011;67272;48.066;11.038;2023-10-19T11:42:48;10.43;;;7.93;;
39256;SDS011;67272;48.066;11.038;2023-10-19T11:45:14;22.50;;;16.88;;
39256;SDS011;67272;48.066;11.038;2023-10-19T11:47:44;8.40;;;6.60;;
39256;SDS011;67272;48.066;11.038;2023-10-19T11:50:11;3.92;;;3.63;;
39256;SDS011;67272;48.066;11.038;2023-10-19T11:52:43;4.00;;;3.70;;
39256;SDS011;67272;48.066;11.038;2023-10-19T11:55:14;6.47;;;5.88;;
39256;SDS011;67272;48.066;11.038;2023-10-19T11:57:44;4.10;;;3.70;;
39256;SDS011;67272;48.066;11.038;2023-10-19T12:00:11;5.32;;;4.82;;
39256;SDS011;67272;48.066;11.038;2023-10-19T12:02:47;6.20;;;5.70;;
39256;SDS011;67272;48.066;11.038;2023-10-19T12:05:14;8.02;;;6.57;;
39256;SDS011;67272;48.066;11.038;2023-10-19T12:07:40;10.13;;;8.00;;
39256;SDS011;67272;48.066;11.038;2023-10-19T12:10:07;22.33;;;13.35;;
39256;SDS011;67272;48.066;11.038;2023-10-19T12:12:37;5.72;;;5.13;;
39256;SDS011;67272;48.066;11.038;2023-10-19T12:15:04;6.80;;;6.10;;
39256;SDS011;67272;48.066;11.038;2023-10-19T12:17:33;6.28;;;5.70;;
39256;SDS011;67272;48.066;11.038;2023-10-19T12:20:00;4.32;;;3.92;;
39256;SDS011;67272;48.066;11.038;2023-10-19T12:22:26;3.50;;;3.20;;
39256;SDS011;67272;48.066;11.038;2023-10-19T12:24:59;2.90;;;2.45;;
39256;SDS011;67272;48.066;11.038;2023-10-19T12:27:25;3.00;;;2.70;;
39256;SDS011;67272;48.066;11.038;2023-10-19T12:29:51;2.47;;;2.28;;
39256;SDS011;67272;48.066;11.038;2023-10-19T12:32:18;2.65;;;1.80;;
39256;SDS011;67272;48.066;11.038;2023-10-19T12:34:44;2.40;;;1.88;;
39256;SDS011;67272;48.066;11.038;2023-10-19T12:37:10;3.35;;;2.92;;
39256;SDS011;67272;48.066;11.038;2023-10-19T12:39:38;4.72;;;4.32;;
39256;SDS011;67272;48.066;11.038;2023-10-19T12:42:14;5.18;;;4.68;;
39256;SDS011;67272;48.066;11.038;2023-10-19T12:44:41;3.03;;;2.50;;
39256;SDS011;67272;48.066;11.038;2023-10-19T12:47:08;1.95;;;1.80;;
39256;SDS011;67272;48.066;11.038;2023-10-19T12:49:39;2.47;;;2.15;;
39256;SDS011;67272;48.066;11.038;2023-10-19T12:52:06;2.30;;;2.10;;
39256;SDS011;67272;48.066;11.038;2023-10-19T12:54:36;2.40;;;2.20;;
39256;SDS011;67272;48.066;11.038;2023-10-19T12:57:02;2.35;;;2.15;;
39256;SDS011;67272;48.066;11.038;2023-10-19T12:59:32;2.50;;;2.25;;
39256;SDS011;67272;48.066;11.038;2023-10-19T13:01:59;1.83;;;1.73;;
39256;SDS011;67272;48.066;11.038;2023-10-19T13:04:28;2.20;;;2.00;;
39256;SDS011;67272;48.066;11.038;2023-10-19T13:06:58;2.17;;;2.03;;
39256;SDS011;67272;48.066;11.038;2023-10-19T13:09:25;2.30;;;2.10;;
39256;SDS011;67272;48.066;11.038;2023-10-19T13:11:58;2.50;;;2.30;;
39256;SDS011;67272;48.066;11.038;2023-10-19T13:14:25;2.85;;;2.17;;
39256;SDS011;67272;48.066;11.038;2023-10-19T13:16:52;2.35;;;2.15;;
39256;SDS011;67272;48.066;11.038;2023-10-19T13:19:19;3.03;;;2.30;;
39256;SDS011;67272;48.066;11.038;2023-10-19T13:21:49;2.00;;;1.83;;
39256;SDS011;67272;48.066;11.038;2023-10-19T13:24:15;2.30;;;2.10;;
39256;SDS011;67272;48.066;11.038;2023-10-19T13:26:42;4.65;;;2.85;;
39256;SDS011;67272;48.066;11.038;2023-10-19T13:29:12;3.17;;;2.88;;
39256;SDS011;67272;48.066;11.038;2023-10-19T13:31:40;2.97;;;2.03;;
39256;SDS011;67272;48.066;11.038;2023-10-19T13:34:06;3.78;;;2.33;;
39256;SDS011;67272;48.066;11.038;2023-10-19T13:36:36;2.92;;;2.47;;
39256;SDS011;67272;48.066;11.038;2023-10-19T13:39:04;2.45;;;2.20;;
39256;SDS011;67272;48.066;11.038;2023-10-19T13:41:31;2.40;;;2.00;;
39256;SDS011;67272;48.066;11.038;2023-10-19T13:43:57;2.95;;;2.60;;
39256;SDS011;67272;48.066;11.038;2023-10-19T13:46:23;3.33;;;2.30;;
39256;SDS011;67272;48.066;11.038;2023-10-19T13:48:50;2.60;;;2.15;;
39256;SDS011;67272;48.066;11.038;2023-10-19T13:51:16;2.70;;;2.50;;
39256;SDS011;67272;48.066;11.038;2023-10-19T13:53:44;4.57;;;3.15;;
39256;SDS011;67272;48.066;11.038;2023-10-19T13:56:11;2.88;;;2.50;;
39256;SDS011;67272;48.066;11.038;2023-10-19T13:58:37;2.90;;;2.60;;
39256;SDS011;67272;48.066;11.038;2023-10-19T14:01:07;3.15;;;2.70;;
39256;SDS011;67272;48.066;11.038;2023-10-19T14:03:34;3.92;;;2.78;;
39256;SDS011;67272;48.066;11.038;2023-10-19T14:06:03;3.60;;;3.30;;
39256;SDS011;67272;48.066;11.038;2023-10-19T14:08:29;5.95;;;4.80;;
39256;SDS011;67272;48.066;11.038;2023-10-19T14:11:02;6.93;;;5.88;;
39256;SDS011;67272;48.066;11.038;2023-10-19T14:13:29;5.03;;;4.63;;
39256;SDS011;67272;48.066;11.038;2023-10-19T14:15:56;10.00;;;9.00;;
39256;SDS011;67272;48.066;11.038;2023-10-19T14:18:22;10.13;;;8.57;;
39256;SDS011;67272;48.066;11.038;2023-10-19T14:20:49;9.70;;;8.88;;
39256;SDS011;67272;48.066;11.038;2023-10-19T14:23:15;6.50;;;5.90;;
39256;SDS011;67272;48.066;11.038;2023-10-19T14:25:41;3.70;;;3.40;;
39256;SDS011;67272;48.066;11.038;2023-10-19T14:28:09;3.80;;;3.50;;
39256;SDS011;67272;48.066;11.038;2023-10-19T14:30:39;3.67;;;3.20;;
39256;SDS011;67272;48.066;11.038;2023-10-19T14:33:05;4.57;;;4.00;;
39256;SDS011;67272;48.066;11.038;2023-10-19T14:35:36;4.57;;;3.97;;
39256;SDS011;67272;48.066;11.038;2023-10-19T14:38:06;3.47;;;2.92;;
39256;SDS011;67272;48.066;11.038;2023-10-19T14:40:34;3.05;;;2.78;;
39256;SDS011;67272;48.066;11.038;2023-10-19T14:43:01;5.05;;;3.00;;
39256;SDS011;67272;48.066;11.038;2023-10-19T14:45:28;3.97;;;3.10;;
39256;SDS011;67272;48.066;11.038;2023-10-19T14:47:55;3.83;;;3.00;;
39256;SDS011;67272;48.066;11.038;2023-10-19T14:50:23;3.13;;;2.83;;
39256;SDS011;67272;48.066;11.038;2023-10-19T14:52:50;3.33;;;3.13;;